Details From RCSS - Sungshan
To ZLLL - Zhongchuan
Flight Number -
Tags Generated
Created
Modified
Stats Distance 1,149 nm / 2,129 km
Max Altitude 0 ft / 0 m
Waypoints 3
Social Downloads 1
Likes 0
Share VATSIM

Download

Looking for another format? Having issues loading an existing format? Contact us
Advertisement - Login to hide

Notes

Generated

Route

RCSS ZGC ZLLL

ID Type Via Altitude Latitude Longitude Leg Dist Tot Dist Heading (true) Name
O RCSS APT - 0 ft / 0 m 25.07005˚ 121.53962˚ - 0 nm - -
ZGC VOR - 0 ft / 0 m 36.51500˚ 103.62500˚ 1148 nm 1148 nm 311° / 302° -
O ZLLL APT - 0 ft / 0 m 36.53151˚ 103.61976˚ 1 nm 1149 nm 346° / 346° -

Altitude Profile

Advertisement - Login to hide

Weather


0- 5 10 15 20 25 30 35+ Temperature / ° C

Clouds and Precipitation
Forecast for 2017-12-16 00:00 UTC. Updated 37 minutes ago

Ground ~20,000 ft ~40,000 ft Winds

RCSS

Details ICAO RCSS (TSA)
Name Sungshan
Region Republic of China (Taiwan)
Timezone Asia/Taipei (UTC+8.0)
Stats Elevation 18 ft / 5 m (AMSL)
Location 25.069586° 121.552570°
Runways 1
Magnetic Variation 4.481° W

METAR

RCSS 152100Z VRB01KT 8000 -RA FEW005 BKN016 BKN040 18/17 Q1019 NOSIG RMK A3011 RA AMT 0.8MM

Decode

TAF

TAF RCSS 151700Z 1518/1618 10005KT 9999 FEW012 BKN032 TEMPO 1522/1604 30005KT 4000 RA SCT010 BKN016 BKN030 TEMPO 1604/1610 08010KT 5000 RA FEW010 BKN020 BKN040 BECMG 1610/1612 09010KT

Decode

Departure Runways

ID Width Length Bearing (true) Bearing (mag) Surface Threshold Offset Overrun Length
10 197 ft / 60 m 8,566 ft / 2,611 m 92.26° 96.74° Asphalt 0 ft / 0 m 197 ft / 60 m
28 197 ft / 60 m 8,566 ft / 2,611 m 272.27° 276.75° Asphalt 0 ft / 0 m 525 ft / 160 m

ZLLL

Details ICAO ZLLL (ZGC)
Name Lanzhou-Zhongchuan
Region China
Timezone Asia/Chongqing (UTC+8.0)
Stats Elevation 6,388 ft / 1,947 m (AMSL)
Location 36.515237° 103.620705°
Runways 1
Magnetic Variation 2.330° W

METAR

ZLLL 152100Z 32001MPS CAVOK M14/M17 Q1035 NOSIG

Decode

TAF

Not found

Destination Runways

ID Width Length Bearing (true) Bearing (mag) Surface Threshold Offset Overrun Length
18 148 ft / 45 m 11,822 ft / 3,603 m 177.36° 179.69° Concrete 0 ft / 0 m 0 ft / 0 m
36 148 ft / 45 m 11,822 ft / 3,603 m 357.36° 359.69° Concrete 0 ft / 0 m 0 ft / 0 m

Approach Navaids

Runway Type Ident Frequency Range Bearing (true) Bearing (mag) Slope Elevation
18 Localiser IKQ 108.50 MHz 18 nm / 33 km 177.38° 179.71° - 6,334 ft / 1,931 m (AMSL)
18 Glidescope IKQ 108.50 MHz 10 nm / 19 km 177.38° 179.71° 3.00° 6,387 ft / 1,947 m (AMSL)
36 Localiser IYY 109.30 MHz 18 nm / 33 km 357.38° 359.71° - 6,394 ft / 1,949 m (AMSL)
36 Glidescope IYY 109.30 MHz 10 nm / 19 km 357.38° 359.71° 3.00° 6,336 ft / 1,931 m (AMSL)
36 DME IYY 109.30 MHz 18 nm / 33 km - - - 6,341 ft / 1,933 m (AMSL)